< < Back
Terminal Aerodrome Forecast


Current Version              Previous Versions:   1  2  3  4  5  6  7  8  9  

Terminal Aerodrome Forecast

810
FTUS42 KGSP 240500
TAFAND
TAF
KAND 240537Z 2406/2506 07007KT P6SM SKC
     FM241800 11006KT P6SM FEW250
     FM242000 16006KT P6SM FEW250
     FM250400 09005KT P6SM BKN060=

Latest METAR

214
SAUS70 KWBC 242000 RRA
MTRAND
METAR KAND 241956Z AUTO 24006KT 10SM CLR 24/04 A2999 RMK AO2 SLP148
T02440039


USA.gov is the U.S. government's official web portal to all federal, state and local government web resources and services.